WetterOnline ( https://www.wetteronline.de )

Wetter aktuell Schwedt

Aktuelles Wetter: Angermünde (55m)

6-stündlich | Neueste Meldungen
Ortszeit Temperatur Wetter
Mi, 23.06. 20:00 18.5° C bedeckt
Mi, 23.06. 14:00 20.4° C bedeckt
Mi, 23.06. 8:00 16.2° C leicht bewölkt
Mi, 23.06. 2:00 12.6° C wolkenlos
Di, 22.06. 20:00 19.7° C bewölkt
Di, 22.06. 14:00 17.7° C leichter Regen
Di, 22.06. 8:00 18.3° C bedeckt
Di, 22.06. 2:00 19.3° C wolkenlos
Ortszeit Temperatur Wetter
Do, 24.06. 0:10 13.3° C wolkig
Do, 24.06. 0:00 13.1° C wolkig
Mi, 23.06. 23:50 13.1° C wolkig
Mi, 23.06. 23:40 13.8° C wolkig
Mi, 23.06. 23:30 14.6° C leicht bewölkt
Mi, 23.06. 23:20 14.6° C leicht bewölkt
Mi, 23.06. 23:00 14.8° C fast wolkenlos
Mi, 23.06. 22:30 15.5° C wolkenlos
Mi, 23.06. 22:00 16.7° C bedeckt
Mi, 23.06. 21:30 17.4° C bedeckt
Mi, 23.06. 21:00 17.8° C bedeckt
Ortszeit Relative Feuchte Sichtweite
Mi, 23.06. 20:00 66% 45 km
Mi, 23.06. 14:00 57% 45 km
Mi, 23.06. 8:00 73% 30 km
Mi, 23.06. 2:00 97% 26 km
Di, 22.06. 20:00 67% 55 km
Di, 22.06. 14:00 83% 30 km
Di, 22.06. 8:00 84% 30 km
Di, 22.06. 2:00 85% 40 km
Ortszeit Relative Feuchte Sichtweite
Do, 24.06. 0:10 94% -
Do, 24.06. 0:00 92% 26 km
Mi, 23.06. 23:50 92% -
Mi, 23.06. 23:40 91% -
Mi, 23.06. 23:30 90% 35 km
Mi, 23.06. 23:20 90% -
Mi, 23.06. 23:00 88% 28 km
Mi, 23.06. 22:30 83% 40 km
Mi, 23.06. 22:00 79% 40 km
Mi, 23.06. 21:30 75% 50 km
Mi, 23.06. 21:00 71% 45 km
Ortszeit Niederschlagsmenge Niederschlagsart
Mi, 23.06. 20:00 0.1 l/m2 in 12 Std. Regen
Mi, 23.06. 14:00 0.0 l/m2 in 6 Std. -
Mi, 23.06. 8:00 0.0 l/m2 in 12 Std. -
Mi, 23.06. 2:00 0.0 l/m2 in 6 Std. -
Di, 22.06. 20:00 0.1 l/m2 in 12 Std. Regen
Di, 22.06. 14:00 0.1 l/m2 in 6 Std. Regen
Di, 22.06. 8:00 0.0 l/m2 in 12 Std. -
Di, 22.06. 2:00 0.0 l/m2 in 6 Std. -
Ortszeit Niederschlagsmenge Niederschlagsart
Do, 24.06. 0:10 keine Meldung -
Do, 24.06. 0:00 0.0 l/m2 in 1 Std. -
Mi, 23.06. 23:50 keine Meldung -
Mi, 23.06. 23:40 keine Meldung -
Mi, 23.06. 23:30 0.0 l/m2 in 1 Std. -
Mi, 23.06. 23:20 keine Meldung -
Mi, 23.06. 23:00 0.0 l/m2 in 1 Std. -
Mi, 23.06. 22:30 0.0 l/m2 in 1 Std. -
Mi, 23.06. 22:00 0.0 l/m2 in 1 Std. -
Mi, 23.06. 21:30 0.0 l/m2 in 1 Std. -
Mi, 23.06. 21:00 0.0 l/m2 in 1 Std. -
Ortszeit Stärke Spitze Richtung
km/h Bft. km/h Grad Sektor
Mi, 23.06. 20:00 6 1 22 350° N
Mi, 23.06. 14:00 11 2 20 280° W
Mi, 23.06. 8:00 7 2 11 360° N
Mi, 23.06. 2:00 7 2 14 310° NW
Di, 22.06. 20:00 11 2 25 310° NW
Di, 22.06. 14:00 9 2 30 320° NW
Di, 22.06. 8:00 22 4 29 310° NW
Di, 22.06. 2:00 9 2 31 310° NW
Ortszeit Stärke Spitze Richtung
km/h Bft. km/h Grad Sektor
Do, 24.06. 0:10 7 2 - 310° NW
Do, 24.06. 0:00 4 1 7 320° NW
Mi, 23.06. 23:50 4 1 - 320° NW
Mi, 23.06. 23:40 7 2 - 340° N
Mi, 23.06. 23:30 4 1 7 340° N
Mi, 23.06. 23:20 4 1 - 340° N
Mi, 23.06. 23:00 6 1 7 310° NW
Mi, 23.06. 22:30 4 1 7 340° N
Mi, 23.06. 22:00 4 1 7 340° N
Mi, 23.06. 21:30 4 1 7 30° NO
Mi, 23.06. 21:00 4 1 7 350° N
Ortszeit Untergrenze Bedeckung Gattung
total tief tief mittel hoch
Mi, 23.06. 20:00 3300 m 8/8 8/8 - - -
Mi, 23.06. 14:00 3000 m 8/8 8/8 - - -
Mi, 23.06. 8:00 7800 m 6/8 0/8 - - -
Mi, 23.06. 2:00 - 0/8 0/8 - - -
Di, 22.06. 20:00 1140 m 8/8 7/8 - - -
Di, 22.06. 14:00 480 m 8/8 8/8 - - -
Di, 22.06. 8:00 330 m 8/8 8/8 - - -
Di, 22.06. 2:00 - 0/8 0/8 - - -
Ortszeit Bedeckungsgrad in Achtel und Wolkenuntergrenze
Do, 24.06. 0:10 1(2100m) 7(9000m) 7(9000m)
Do, 24.06. 0:00 6(9000m) 8(9000m) 7(9000m)
Mi, 23.06. 23:50 6(9000m) 8(9000m)
Mi, 23.06. 23:40 5(9000m) 8(9000m)
Mi, 23.06. 23:30 3(9000m) 4(9000m)
Mi, 23.06. 23:20 3(9000m) 4(9000m)
Mi, 23.06. 23:00 2(8700m)
Mi, 23.06. 22:30 keine Wolken
Mi, 23.06. 22:00 8(3000m)
Mi, 23.06. 21:30 8(3000m)
Mi, 23.06. 21:00 8(3000m) 8(3600m)
Ortszeit Luftdruck NN (hPa) Tendenz (hPa in 3 Std.)
Mi, 23.06. 20:00 1021 - 0,4
Mi, 23.06. 14:00 1020 + 0,4
Mi, 23.06. 8:00 1019 + 1,0
Mi, 23.06. 2:00 1018 + 1,1
Di, 22.06. 20:00 1015 + 0,7
Di, 22.06. 14:00 1014 + 1,6
Di, 22.06. 8:00 1012 + 1,5
Di, 22.06. 2:00 1008 + 0,8
Ortszeit Luftdruck NN (hPa) Tendenz (hPa in 3 Std.)
Do, 24.06. 0:10 1020 keine Meldung
Do, 24.06. 0:00 1021 - 0,2
Mi, 23.06. 23:50 1021 keine Meldung
Mi, 23.06. 23:40 1020 keine Meldung
Mi, 23.06. 23:30 1020 - 0,3
Mi, 23.06. 23:20 1020 keine Meldung
Mi, 23.06. 23:00 1021 + 0,2
Mi, 23.06. 22:30 1021 + 0,5
Mi, 23.06. 22:00 1021 + 0,5
Mi, 23.06. 21:30 1021 + 0,6
Mi, 23.06. 21:00 1021 + 0,4
Ortszeit Schneehöhe (cm)
Mi, 23.06. 20:00 0
Mi, 23.06. 14:00 0
Mi, 23.06. 8:00 0
Mi, 23.06. 2:00 0
Di, 22.06. 20:00 0
Di, 22.06. 14:00 0
Di, 22.06. 8:00 0
Di, 22.06. 2:00 0
Ortszeit Schneehöhe (cm)
Do, 24.06. 0:10 0
Do, 24.06. 0:00 0
Mi, 23.06. 23:50 0
Mi, 23.06. 23:40 0
Mi, 23.06. 23:30 0
Mi, 23.06. 23:20 0
Mi, 23.06. 23:00 0
Mi, 23.06. 22:30 0
Mi, 23.06. 22:00 0
Mi, 23.06. 21:30 0
Mi, 23.06. 21:00 0
Link zu dieser Seite / Seite empfehlen

Das Wetter in ...